Time;durP1;ratioP1;P1;durP2;ratioP2;P2;SDS_P1;SDS_P2;PMS_P1;PMS_P2;Temp;Humidity;BMP_temperature;BMP_pressure;BME280_temperature;BME280_humidity;BME280_pressure;Samples;Min_cycle;Max_cycle;Signal;HPM_P1;HPM_P2
2023/09/16 00:02:07;;;;;;;15.80;13.80;;;;;;;14.56;100.00;101400.89;105677;1255;62059;-71
2023/09/16 00:04:34;;;;;;;17.50;13.30;;;;;;;14.52;100.00;101403.71;105789;1253;60181;-74
2023/09/16 00:07:02;;;;;;;16.70;14.60;;;;;;;14.50;100.00;101408.40;105684;1256;73044;-74
2023/09/16 00:09:33;;;;;;;16.20;14.40;;;;;;;14.47;100.00;101409.86;105629;1252;62603;-71
2023/09/16 00:12:00;;;;;;;15.30;13.60;;;;;;;14.44;100.00;101407.92;105775;1253;71457;-73
2023/09/16 00:14:29;;;;;;;18.50;14.20;;;;;;;14.43;100.00;101411.52;105633;1257;60443;-70
2023/09/16 00:17:00;;;;;;;14.30;12.70;;;;;;;14.41;100.00;101408.30;105858;1253;60185;-74
2023/09/16 00:19:26;;;;;;;17.50;14.20;;;;;;;14.40;100.00;101409.08;105871;1253;73142;-71
2023/09/16 00:21:54;;;;;;;15.40;13.70;;;;;;;14.40;100.00;101411.84;105729;1252;64054;-72
2023/09/16 00:24:21;;;;;;;17.00;14.50;;;;;;;14.41;100.00;101409.38;105742;1257;72752;-71
2023/09/16 00:26:48;;;;;;;15.90;14.20;;;;;;;14.40;100.00;101409.58;105673;1257;62117;-71
2023/09/16 00:29:16;;;;;;;17.20;14.30;;;;;;;14.41;100.00;101403.89;105885;1253;60283;-72
2023/09/16 00:31:42;;;;;;;17.50;14.60;;;;;;;14.40;100.00;101404.64;105749;1254;73133;-71
2023/09/16 00:34:09;;;;;;;15.20;13.40;;;;;;;14.41;100.00;101405.48;105687;1257;62759;-71
2023/09/16 00:36:36;;;;;;;16.20;14.50;;;;;;;14.43;100.00;101406.23;105795;1259;72650;-73
2023/09/16 00:39:04;;;;;;;15.50;13.90;;;;;;;14.44;100.00;101406.69;105845;1257;61783;-73
2023/09/16 00:41:32;;;;;;;15.80;14.10;;;;;;;14.44;100.00;101411.08;105702;1257;59640;-72
2023/09/16 00:43:59;;;;;;;16.10;13.60;;;;;;;14.44;100.00;101409.66;105631;1253;73012;-72
2023/09/16 00:46:27;;;;;;;15.80;14.10;;;;;;;14.44;100.00;101414.08;105741;1254;62539;-70
2023/09/16 00:48:55;;;;;;;15.80;14.20;;;;;;;14.43;100.00;101417.80;105629;1253;72739;-71
2023/09/16 00:51:22;;;;;;;17.20;14.60;;;;;;;14.43;100.00;101420.29;105684;1258;62106;-71
2023/09/16 00:53:49;;;;;;;15.00;13.10;;;;;;;14.41;100.00;101427.30;105772;1253;59642;-70
2023/09/16 00:56:17;;;;;;;16.60;14.60;;;;;;;14.39;100.00;101435.48;105773;1252;73012;-70
2023/09/16 00:58:44;;;;;;;16.00;14.40;;;;;;;14.40;100.00;101438.78;105685;1257;63703;-71
2023/09/16 01:01:12;;;;;;;16.90;13.60;;;;;;;14.40;100.00;101439.30;105843;1257;72618;-71
2023/09/16 01:03:41;;;;;;;15.20;13.30;;;;;;;14.39;100.00;101439.56;105552;1261;61944;-71
2023/09/16 01:06:10;;;;;;;15.20;13.60;;;;;;;14.37;100.00;101440.23;105818;1253;61429;-70
2023/09/16 01:08:37;;;;;;;14.70;13.10;;;;;;;14.33;100.00;101442.05;105885;1253;73095;-72
2023/09/16 01:11:05;;;;;;;15.60;14.00;;;;;;;14.30;100.00;101442.05;105840;1253;63737;-74
2023/09/16 01:13:33;;;;;;;14.40;13.00;;;;;;;14.27;100.00;101444.19;105738;1253;72786;-70
2023/09/16 01:16:26;;;;;;;16.50;13.40;;;;;;;14.25;100.00;101443.05;105724;1257;62049;-71
2023/09/16 01:18:56;;;;;;;17.90;14.70;;;;;;;14.23;100.00;101446.34;105710;1253;60365;-71
2023/09/16 01:21:23;;;;;;;16.10;13.00;;;;;;;14.20;100.00;101448.80;105711;1257;72924;-72
2023/09/16 01:24:16;;;;;;;16.20;13.20;;;;;;;14.16;100.00;101444.02;105692;1253;63952;-71
2023/09/16 01:26:43;;;;;;;18.20;13.80;;;;;;;14.08;100.00;101443.55;105760;1253;72768;-72
2023/09/16 01:29:10;;;;;;;15.70;14.10;;;;;;;14.01;100.00;101445.25;105743;1253;60550;-71
2023/09/16 01:31:38;;;;;;;18.80;14.50;;;;;;;13.94;100.00;101444.48;105754;1253;60192;-70
2023/09/16 01:34:27;;;;;;;16.50;14.20;;;;;;;13.86;100.00;101442.82;105760;1258;73098;-72
2023/09/16 01:36:54;;;;;;;15.50;14.00;;;;;;;13.77;100.00;101447.39;105694;1257;62912;-73
2023/09/16 01:39:21;;;;;;;14.80;13.40;;;;;;;13.72;100.00;101451.77;105647;1253;72670;-72
2023/09/16 01:41:52;;;;;;;16.10;14.30;;;;;;;13.65;100.00;101453.38;105703;1259;62205;-71
2023/09/16 01:44:19;;;;;;;17.80;16.00;;;;;;;13.59;100.00;101452.52;105694;1253;60341;-72
2023/09/16 01:46:46;;;;;;;14.80;13.30;;;;;;;13.54;100.00;101451.25;105610;1253;73139;-72
2023/09/16 01:49:12;;;;;;;16.40;14.80;;;;;;;13.50;100.00;101454.45;105671;1257;63802;-72
2023/09/16 01:51:39;;;;;;;17.50;15.70;;;;;;;13.45;100.00;101454.39;105716;1255;73163;-71
2023/09/16 01:54:07;;;;;;;16.60;14.80;;;;;;;13.39;100.00;101453.00;105666;1258;60565;-71
2023/09/16 01:56:34;;;;;;;17.10;15.40;;;;;;;13.33;100.00;101460.34;105758;1256;60132;-71
2023/09/16 01:59:01;;;;;;;17.60;15.60;;;;;;;13.28;100.00;101458.34;105626;1254;73009;-72
2023/09/16 02:01:28;;;;;;;19.50;16.50;;;;;;;13.24;100.00;101459.94;105707;1258;64060;-70
2023/09/16 02:03:55;;;;;;;17.80;16.00;;;;;;;13.20;100.00;101462.65;105682;1257;72625;-71
2023/09/16 02:06:22;;;;;;;18.70;15.30;;;;;;;13.16;100.00;101464.63;105633;1258;60790;-71
2023/09/16 02:08:49;;;;;;;19.30;15.80;;;;;;;13.12;100.00;101465.77;105659;1254;60223;-69
2023/09/16 02:11:16;;;;;;;20.90;17.90;;;;;;;13.07;100.00;101470.58;105677;1253;73007;-70
2023/09/16 02:13:42;;;;;;;19.70;16.00;;;;;;;13.04;100.00;101469.89;105732;1258;63858;-69
2023/09/16 02:16:13;;;;;;;17.40;15.60;;;;;;;13.01;100.00;101475.00;105716;1253;72601;-70
2023/09/16 02:18:40;;;;;;;18.60;15.10;;;;;;;12.97;100.00;101473.83;105690;1258;60661;-69
2023/09/16 02:21:07;;;;;;;19.30;17.20;;;;;;;12.92;100.00;101474.45;105744;1253;60379;-68
2023/09/16 02:23:34;;;;;;;17.70;15.90;;;;;;;12.89;100.00;101471.63;105792;1253;72955;-69
2023/09/16 02:26:01;;;;;;;20.40;16.30;;;;;;;12.87;100.00;101477.88;105709;1259;62564;-69
2023/09/16 02:28:30;;;;;;;18.40;16.60;;;;;;;12.85;100.00;101475.88;105780;1253;72356;-69
2023/09/16 02:30:57;;;;;;;18.40;16.50;;;;;;;12.83;100.00;101475.99;105712;1257;60512;-70
2023/09/16 02:33:23;;;;;;;19.20;15.10;;;;;;;12.79;100.00;101473.73;105698;1253;60240;-69
2023/09/16 02:35:50;;;;;;;20.30;16.80;;;;;;;12.77;100.00;101476.15;105756;1252;72815;-70
2023/09/16 02:38:17;;;;;;;19.10;17.00;;;;;;;12.73;100.00;101478.27;105712;1257;63965;-71
2023/09/16 02:40:44;;;;;;;20.80;18.10;;;;;;;12.70;100.00;101482.84;105788;1266;72554;-70
2023/09/16 02:43:12;;;;;;;23.70;18.00;;;;;;;12.66;100.00;101487.10;105705;1257;60671;-70
2023/09/16 02:45:42;;;;;;;16.80;14.60;;;;;;;12.62;100.00;101496.98;105732;1257;59570;-71
2023/09/16 02:48:10;;;;;;;18.00;16.00;;;;;;;12.58;100.00;101495.77;105723;1258;72130;-71
2023/09/16 02:50:37;;;;;;;17.30;15.60;;;;;;;12.55;100.00;101499.44;105687;1257;63720;-70
2023/09/16 02:53:04;;;;;;;17.90;16.00;;;;;;;12.52;100.00;101502.92;105793;1253;72630;-70
2023/09/16 02:55:32;;;;;;;19.10;16.20;;;;;;;12.49;100.00;101505.22;105721;1257;61971;-71
2023/09/16 02:57:59;;;;;;;19.50;17.30;;;;;;;12.46;100.00;101505.56;105671;1254;60432;-71
2023/09/16 03:00:26;;;;;;;18.30;16.00;;;;;;;12.43;100.00;101507.31;105709;1255;73010;-70
2023/09/16 03:02:53;;;;;;;18.20;16.40;;;;;;;12.38;100.00;101505.23;105677;1257;62875;-69
2023/09/16 03:05:20;;;;;;;19.70;17.90;;;;;;;12.35;100.00;101509.61;105674;1253;71466;-71
2023/09/16 03:07:48;;;;;;;20.30;18.00;;;;;;;12.32;100.00;101508.95;105666;1257;62030;-69
2023/09/16 03:10:16;;;;;;;20.50;17.20;;;;;;;12.29;100.00;101510.17;105762;1253;60478;-70
2023/09/16 03:12:43;;;;;;;21.20;18.80;;;;;;;12.24;100.00;101511.59;105722;1253;73941;-70
2023/09/16 03:15:11;;;;;;;18.80;16.80;;;;;;;12.20;100.00;101509.90;105797;1258;64018;-72
2023/09/16 03:17:38;;;;;;;19.30;17.30;;;;;;;12.16;100.00;101513.27;105763;1253;72453;-70
2023/09/16 03:20:07;;;;;;;19.00;17.10;;;;;;;12.12;100.00;101514.70;105798;1257;61915;-72
2023/09/16 03:22:33;;;;;;;19.30;17.20;;;;;;;12.09;100.00;101523.81;105827;1254;60450;-69
2023/09/16 03:25:01;;;;;;;21.40;17.90;;;;;;;12.06;100.00;101526.25;105778;1259;73839;-70
2023/09/16 03:27:28;;;;;;;20.10;16.90;;;;;;;12.02;100.00;101527.11;105770;1256;63526;-70
2023/09/16 03:29:55;;;;;;;20.30;17.90;;;;;;;11.99;100.00;101529.58;105765;1253;72485;-71
2023/09/16 03:32:27;;;;;;;26.40;18.40;;;;;;;11.96;100.00;101527.80;105796;1253;61781;-69
2023/09/16 03:34:54;;;;;;;19.90;17.80;;;;;;;11.93;100.00;101529.17;105795;1259;60515;-71
2023/09/16 03:37:21;;;;;;;22.20;17.40;;;;;;;11.91;100.00;101532.45;105820;1257;73767;-70
2023/09/16 03:39:49;;;;;;;20.80;18.40;;;;;;;11.88;100.00;101533.60;105849;1259;62419;-69
2023/09/16 03:42:16;;;;;;;20.50;18.40;;;;;;;11.86;100.00;101538.77;105806;1254;72699;-71
2023/09/16 03:44:43;;;;;;;18.80;16.70;;;;;;;11.85;100.00;101545.15;105827;1252;62218;-73
2023/09/16 03:47:10;;;;;;;20.50;18.40;;;;;;;11.83;100.00;101548.56;105821;1253;60517;-72
2023/09/16 03:49:38;;;;;;;21.30;18.70;;;;;;;11.81;100.00;101550.92;105805;1257;73864;-71
2023/09/16 03:52:05;;;;;;;21.20;17.40;;;;;;;11.80;100.00;101553.10;105741;1254;63934;-71
2023/09/16 03:54:32;;;;;;;23.10;18.10;;;;;;;11.80;100.00;101559.06;105530;1258;72702;-70
2023/09/16 03:57:00;;;;;;;21.40;18.30;;;;;;;11.82;100.00;101560.16;105483;1258;62038;-70
2023/09/16 03:59:27;;;;;;;21.90;18.80;;;;;;;11.82;100.00;101563.68;105782;1257;60445;-71
2023/09/16 04:01:54;;;;;;;21.30;18.30;;;;;;;11.81;100.00;101569.50;105676;1257;74301;-73
2023/09/16 04:04:21;;;;;;;19.90;17.80;;;;;;;11.82;100.00;101574.88;105578;1259;62369;-72
2023/09/16 04:06:49;;;;;;;20.70;18.70;;;;;;;11.85;100.00;101578.63;105719;1257;72740;-70
2023/09/16 04:09:16;;;;;;;21.50;17.60;;;;;;;11.87;100.00;101575.21;105755;1258;61742;-70
2023/09/16 04:11:43;;;;;;;24.30;20.70;;;;;;;11.91;100.00;101575.70;105786;1257;60455;-72
2023/09/16 04:14:09;;;;;;;21.50;19.30;;;;;;;11.95;100.00;101580.05;105725;1254;72602;-75
2023/09/16 04:16:39;;;;;;;20.10;18.00;;;;;;;11.98;100.00;101577.46;105778;1257;63819;-71
2023/09/16 04:19:06;;;;;;;22.60;19.30;;;;;;;12.01;100.00;101586.09;105734;1258;71496;-71
2023/09/16 04:21:32;;;;;;;20.50;18.00;;;;;;;12.03;100.00;101588.23;105731;1256;60802;-72
2023/09/16 04:23:59;;;;;;;19.60;17.70;;;;;;;12.06;100.00;101587.95;105767;1253;60517;-72
2023/09/16 04:26:26;;;;;;;21.50;17.00;;;;;;;12.08;100.00;101584.16;105710;1259;73739;-73
2023/09/16 04:28:53;;;;;;;20.80;18.60;;;;;;;12.10;100.00;101588.94;105733;1256;63746;-72
2023/09/16 04:31:20;;;;;;;19.70;17.90;;;;;;;12.15;100.00;101589.55;105828;1257;72756;-72
2023/09/16 04:33:47;;;;;;;23.80;19.30;;;;;;;12.20;100.00;101593.34;105608;1255;60761;-70
2023/09/16 04:36:15;;;;;;;20.00;18.00;;;;;;;12.24;100.00;101602.09;105671;1253;60544;-72
2023/09/16 04:38:42;;;;;;;21.60;17.90;;;;;;;12.29;100.00;101601.30;105669;1257;73940;-72
2023/09/16 04:41:09;;;;;;;19.90;17.80;;;;;;;12.35;100.00;101605.22;105771;1254;62176;-73
2023/09/16 04:43:36;;;;;;;23.20;18.90;;;;;;;12.40;100.00;101610.02;105844;1257;72795;-72
2023/09/16 04:46:04;;;;;;;25.30;19.50;;;;;;;12.46;100.00;101612.54;105717;1258;61107;-72
2023/09/16 04:48:36;;;;;;;22.10;19.80;;;;;;;12.54;100.00;101611.77;105655;1257;60448;-73
2023/09/16 04:51:03;;;;;;;20.80;18.10;;;;;;;12.63;100.00;101617.10;105635;1257;72788;-71
2023/09/16 04:53:32;;;;;;;19.00;17.10;;;;;;;12.86;100.00;101615.70;105648;1258;63963;-73
2023/09/16 04:56:00;;;;;;;21.00;18.20;;;;;;;13.20;100.00;101620.55;105662;1257;72849;-72
2023/09/16 04:58:28;;;;;;;19.00;15.00;;;;;;;13.72;100.00;101618.37;105719;1254;60544;-70
2023/09/16 05:00:59;;;;;;;17.80;14.60;;;;;;;14.41;100.00;101622.40;105795;1254;60432;-72
2023/09/16 05:03:26;;;;;;;14.30;13.00;;;;;;;15.24;100.00;101628.08;105792;1255;72676;-73
2023/09/16 05:05:53;;;;;;;13.80;12.00;;;;;;;16.08;100.00;101627.17;105700;1257;63771;-72
2023/09/16 05:08:23;;;;;;;11.70;10.50;;;;;;;16.94;100.00;101629.97;105643;1255;72662;-74
2023/09/16 05:10:54;;;;;;;12.50;11.20;;;;;;;17.72;100.00;101630.89;105682;1266;62060;-74
2023/09/16 05:13:21;;;;;;;12.50;11.20;;;;;;;18.46;100.00;101635.77;105717;1259;60447;-73
2023/09/16 05:15:49;;;;;;;11.40;10.30;;;;;;;19.08;100.00;101640.34;105719;1253;73781;-76
2023/09/16 05:18:16;;;;;;;12.70;11.40;;;;;;;19.54;100.00;101643.71;105805;1257;63768;-73
2023/09/16 05:20:43;;;;;;;14.10;10.60;;;;;;;19.99;100.00;101644.80;105718;1257;72700;-73
2023/09/16 05:23:16;;;;;;;11.80;10.70;;;;;;;20.55;100.00;101648.97;105826;1257;60664;-74
2023/09/16 05:25:46;;;;;;;11.30;9.80;;;;;;;21.10;100.00;101649.54;105863;1254;60543;-73
2023/09/16 05:28:17;;;;;;;12.80;9.80;;;;;;;21.64;100.00;101648.84;105744;1258;74055;-73
2023/09/16 05:30:44;;;;;;;10.40;9.30;;;;;;;22.14;100.00;101648.97;105709;1266;63678;-71
2023/09/16 05:33:13;;;;;;;11.10;10.00;;;;;;;22.60;100.00;101647.70;105694;1257;72686;-71
2023/09/16 05:35:43;;;;;;;10.80;9.70;;;;;;;22.93;100.00;101647.52;105687;1258;62034;-71
2023/09/16 05:38:10;;;;;;;10.70;9.70;;;;;;;23.22;99.53;101646.59;105818;1257;60467;-71
2023/09/16 05:40:38;;;;;;;10.00;9.10;;;;;;;23.48;95.53;101647.41;105731;1254;75064;-70
2023/09/16 05:43:05;;;;;;;10.80;8.90;;;;;;;23.73;93.47;101648.86;105788;1257;62642;-70
2023/09/16 05:45:32;;;;;;;16.50;10.30;;;;;;;24.07;90.45;101644.25;105765;1259;71571;-69
2023/09/16 05:48:02;;;;;;;12.10;9.10;;;;;;;24.31;79.04;101644.46;105916;1255;60436;-72
2023/09/16 05:50:32;;;;;;;10.10;9.00;;;;;;;24.46;76.04;101649.45;105952;1266;60466;-75
2023/09/16 05:52:58;;;;;;;11.50;10.10;;;;;;;24.69;74.57;101648.14;105699;1266;75100;-74
2023/09/16 05:55:26;;;;;;;12.40;9.00;;;;;;;24.99;70.83;101646.45;105777;1257;63865;-71
2023/09/16 05:57:54;;;;;;;9.80;8.60;;;;;;;25.17;65.39;101648.87;105722;1257;72487;-71
2023/09/16 06:00:21;;;;;;;10.90;9.10;;;;;;;25.32;66.11;101655.61;105692;1257;60604;-71
2023/09/16 06:02:48;;;;;;;9.30;7.80;;;;;;;25.66;63.32;101657.02;105897;1257;60547;-71
2023/09/16 06:05:15;;;;;;;9.70;8.70;;;;;;;26.01;60.05;101661.73;105821;1257;72888;-70
2023/09/16 06:07:42;;;;;;;10.60;9.50;;;;;;;26.29;56.85;101656.31;105922;1257;62612;-70
2023/09/16 06:10:12;;;;;;;9.90;8.90;;;;;;;26.41;54.51;101661.54;105878;1257;73062;-69
2023/09/16 06:12:39;;;;;;;9.40;8.70;;;;;;;26.54;54.54;101657.09;106450;1266;60512;-71
2023/09/16 06:15:07;;;;;;;9.70;8.30;;;;;;;26.64;53.46;101659.52;105800;1259;61072;-71
2023/09/16 06:17:34;;;;;;;12.00;8.60;;;;;;;26.83;53.77;101663.52;105913;1254;73672;-70
2023/09/16 06:20:01;;;;;;;10.00;9.00;;;;;;;27.04;52.40;101665.11;105733;1257;64273;-71
2023/09/16 06:22:28;;;;;;;10.00;9.00;;;;;;;27.36;52.82;101667.38;105708;1252;72787;-70
2023/09/16 06:24:56;;;;;;;9.20;8.40;;;;;;;27.70;50.77;101670.13;105728;1254;60410;-73
2023/09/16 06:27:23;;;;;;;9.20;8.30;;;;;;;27.97;49.24;101673.09;105749;1257;60339;-72
2023/09/16 06:29:50;;;;;;;8.80;8.00;;;;;;;28.28;47.71;101672.27;105813;1254;74040;-72
2023/09/16 06:32:18;;;;;;;9.10;8.40;;;;;;;28.57;46.04;101673.86;105638;1255;62392;-71
2023/09/16 06:34:46;;;;;;;9.80;8.80;;;;;;;28.82;44.76;101670.73;105707;1256;72559;-73
2023/09/16 06:37:13;;;;;;;9.10;8.40;;;;;;;28.86;43.29;101669.88;105770;1259;60378;-71
2023/09/16 06:39:45;;;;;;;8.60;7.90;;;;;;;28.77;42.99;101673.95;105725;1257;60457;-71
2023/09/16 06:42:13;;;;;;;9.10;8.20;;;;;;;28.87;44.03;101677.82;105775;1254;73804;-70
2023/09/16 06:44:41;;;;;;;9.10;8.30;;;;;;;29.17;43.49;101677.39;105633;1257;63944;-73
2023/09/16 06:47:08;;;;;;;8.50;7.80;;;;;;;29.34;42.57;101678.73;105647;1254;72751;-72
2023/09/16 06:49:35;;;;;;;8.10;7.20;;;;;;;29.54;43.47;101682.26;105730;1259;60535;-73
2023/09/16 06:52:03;;;;;;;7.90;7.00;;;;;;;29.81;41.83;101679.83;105836;1255;60463;-72
2023/09/16 06:54:29;;;;;;;6.90;6.30;;;;;;;29.84;40.87;101675.56;105755;1254;73895;-72
2023/09/16 06:56:58;;;;;;;7.50;6.70;;;;;;;29.82;41.26;101682.30;105807;1257;64303;-72
2023/09/16 06:59:27;;;;;;;7.80;6.90;;;;;;;29.83;40.37;101682.20;105819;1257;73950;-75
2023/09/16 07:01:53;;;;;;;5.40;4.80;;;;;;;29.83;40.95;101681.85;105881;1254;60461;-72
2023/09/16 07:04:21;;;;;;;6.60;5.00;;;;;;;30.08;40.27;101683.52;105731;1254;60920;-70
2023/09/16 07:06:47;;;;;;;5.60;4.80;;;;;;;30.36;40.10;101685.77;105667;1254;73864;-75
2023/09/16 07:09:14;;;;;;;5.70;5.10;;;;;;;30.65;38.85;101677.25;105655;1257;63995;-72
2023/09/16 07:11:41;;;;;;;4.00;3.70;;;;;;;30.88;38.36;101679.27;105789;1266;72575;-72
2023/09/16 07:14:08;;;;;;;5.90;4.20;;;;;;;31.14;37.69;101682.83;105709;1267;60893;-72
2023/09/16 07:16:36;;;;;;;4.60;4.10;;;;;;;31.40;36.26;101683.45;105814;1253;60605;-73
2023/09/16 07:19:04;;;;;;;5.30;4.80;;;;;;;31.67;35.68;101681.32;105711;1258;74026;-72
2023/09/16 07:21:31;;;;;;;9.80;4.80;;;;;;;31.81;35.28;101680.30;105721;1254;63756;-74
2023/09/16 07:24:02;;;;;;;8.20;4.30;;;;;;;31.89;35.26;101683.30;105845;1257;72707;-71
2023/09/16 07:26:29;;;;;;;4.50;4.10;;;;;;;31.99;35.16;101688.17;105924;1258;60579;-71
2023/09/16 07:28:57;;;;;;;4.50;4.10;;;;;;;32.13;35.03;101684.71;105824;1254;60537;-73
2023/09/16 07:31:24;;;;;;;7.10;4.50;;;;;;;32.22;34.57;101683.30;105750;1254;73708;-71
2023/09/16 07:33:51;;;;;;;5.70;4.40;;;;;;;32.33;34.31;101685.70;105763;1258;63754;-71
2023/09/16 07:36:18;;;;;;;4.50;4.10;;;;;;;32.56;34.09;101679.96;105784;1257;72730;-72
2023/09/16 07:38:45;;;;;;;5.10;4.10;;;;;;;32.79;33.57;101685.23;105810;1257;60534;-70
2023/09/16 07:41:12;;;;;;;5.10;4.60;;;;;;;32.86;33.34;101682.81;105756;1254;60464;-71
2023/09/16 07:43:38;;;;;;;8.30;5.80;;;;;;;32.89;33.08;101681.31;105628;1254;73890;-72
2023/09/16 07:46:05;;;;;;;3.80;3.40;;;;;;;33.05;32.95;101680.84;105753;1257;63929;-72
2023/09/16 07:48:32;;;;;;;3.90;3.60;;;;;;;33.23;31.94;101679.90;105753;1253;72658;-73
2023/09/16 07:50:59;;;;;;;4.20;3.90;;;;;;;33.41;31.70;101676.90;105813;1257;60534;-71
2023/09/16 07:53:28;;;;;;;4.40;3.90;;;;;;;33.60;30.96;101680.28;105792;1258;60544;-74
2023/09/16 07:55:55;;;;;;;8.00;3.80;;;;;;;33.73;30.70;101686.02;105775;1254;73851;-73
2023/09/16 07:58:22;;;;;;;4.20;3.80;;;;;;;33.80;30.45;101680.06;105760;1257;64037;-72
2023/09/16 08:00:49;;;;;;;4.70;3.00;;;;;;;33.69;29.75;101681.52;105752;1254;73184;-72
2023/09/16 08:03:17;;;;;;;3.20;3.00;;;;;;;33.44;30.32;101684.33;105738;1254;60524;-72
2023/09/16 08:05:43;;;;;;;3.40;3.10;;;;;;;33.46;30.42;101684.31;105767;1258;60483;-72
2023/09/16 08:08:10;;;;;;;7.60;3.30;;;;;;;33.64;30.17;101685.33;105844;1255;73828;-72
2023/09/16 08:10:37;;;;;;;2.90;2.60;;;;;;;33.82;29.72;101685.98;105789;1256;63884;-72
2023/09/16 08:13:04;;;;;;;3.80;3.50;;;;;;;33.94;28.74;101686.27;105659;1255;72870;-75
2023/09/16 08:15:32;;;;;;;3.10;2.80;;;;;;;34.00;28.72;101687.33;105731;1257;61045;-74
2023/09/16 08:17:58;;;;;;;4.00;3.50;;;;;;;34.14;28.53;101690.86;105708;1254;60450;-73
2023/09/16 08:20:25;;;;;;;4.10;3.80;;;;;;;34.21;28.57;101688.83;105701;1254;73940;-76
2023/09/16 08:22:52;;;;;;;3.50;3.00;;;;;;;34.23;27.77;101685.63;105791;1254;65248;-75
2023/09/16 08:25:19;;;;;;;25.90;4.20;;;;;;;34.31;28.29;101684.44;105823;1258;72766;-72
2023/09/16 08:27:46;;;;;;;4.60;3.00;;;;;;;34.37;28.46;101682.14;105712;1256;60546;-74
2023/09/16 08:30:13;;;;;;;3.20;3.00;;;;;;;34.43;27.55;101678.61;105741;1257;60464;-73
2023/09/16 08:32:40;;;;;;;3.50;3.20;;;;;;;34.50;27.96;101677.79;105708;1256;73946;-72
2023/09/16 08:35:08;;;;;;;3.20;2.80;;;;;;;34.60;28.19;101676.14;105763;1257;63843;-74
2023/09/16 08:37:35;;;;;;;2.40;2.30;;;;;;;34.58;27.84;101672.80;105850;1257;72785;-73
2023/09/16 08:40:03;;;;;;;3.30;2.50;;;;;;;34.67;27.98;101672.84;105747;1254;60595;-72
2023/09/16 08:42:41;;;;;;;2.60;2.40;;;;;;;34.83;27.50;101672.70;105773;1254;60483;-71
2023/09/16 08:45:12;;;;;;;4.20;2.40;;;;;;;34.97;26.94;101677.98;105856;1257;73879;-74
2023/09/16 08:47:40;;;;;;;3.20;2.90;;;;;;;35.01;25.60;101670.65;105834;1257;63941;-70
2023/09/16 08:50:09;;;;;;;4.10;2.90;;;;;;;34.87;25.86;101675.80;105880;1254;73144;-70
2023/09/16 08:52:59;;;;;;;3.90;2.80;;;;;;;34.86;26.15;101676.23;105801;1254;61117;-73
2023/09/16 08:55:26;;;;;;;2.20;2.10;;;;;;;34.98;26.15;101679.56;105757;1257;60458;-74
2023/09/16 08:58:00;;;;;;;4.20;2.90;;;;;;;35.02;25.76;101678.14;105633;1254;73899;-72
2023/09/16 09:00:27;;;;;;;2.50;2.20;;;;;;;35.06;25.86;101680.55;105627;1256;63900;-75
2023/09/16 09:02:55;;;;;;;2.50;2.30;;;;;;;35.09;25.68;101679.80;105700;1254;72589;-70
2023/09/16 09:05:25;;;;;;;2.60;2.30;;;;;;;35.17;26.06;101682.29;105840;1254;60621;-73
2023/09/16 09:07:55;;;;;;;2.60;2.40;;;;;;;35.27;25.74;101682.95;105725;1255;61961;-74
2023/09/16 09:10:21;;;;;;;3.10;2.90;;;;;;;35.34;25.77;101682.61;105765;1257;74268;-73
2023/09/16 09:12:48;;;;;;;3.20;2.10;;;;;;;35.35;25.00;101684.89;105923;1257;63897;-74
2023/09/16 09:15:15;;;;;;;3.40;2.20;;;;;;;35.21;24.07;101679.75;105649;1260;72515;-74
2023/09/16 09:17:49;;;;;;;2.30;2.10;;;;;;;35.07;24.56;101681.35;105796;1257;60541;-73
2023/09/16 09:20:20;;;;;;;3.70;2.20;;;;;;;35.03;23.98;101679.38;105782;1257;60436;-74
2023/09/16 09:22:48;;;;;;;2.60;2.10;;;;;;;34.98;24.95;101681.41;105928;1254;73764;-75
2023/09/16 09:25:19;;;;;;;3.20;2.80;;;;;;;35.07;24.97;101687.63;105696;1254;62707;-73
2023/09/16 09:27:46;;;;;;;2.60;2.40;;;;;;;35.25;24.85;101688.52;105813;1257;72732;-75
2023/09/16 09:30:13;;;;;;;2.40;2.20;;;;;;;35.38;24.75;101692.41;105858;1257;60522;-73
2023/09/16 09:32:46;;;;;;;2.70;2.50;;;;;;;35.42;24.60;101691.34;106197;1254;60421;-71
2023/09/16 09:35:13;;;;;;;2.50;2.00;;;;;;;35.43;24.91;101692.49;105846;1253;72256;-72
2023/09/16 09:37:40;;;;;;;2.30;2.00;;;;;;;35.43;24.22;101693.48;106114;1257;63082;-72
2023/09/16 09:40:12;;;;;;;3.20;1.80;;;;;;;35.36;24.10;101698.11;105742;1256;72657;-74
2023/09/16 09:42:42;;;;;;;3.20;2.00;;;;;;;35.15;24.37;101696.86;105993;1258;60542;-71
2023/09/16 09:45:10;;;;;;;2.90;2.10;;;;;;;34.96;24.72;101690.85;105823;1257;60309;-78
2023/09/16 09:47:37;;;;;;;2.30;2.20;;;;;;;35.00;24.73;101692.93;105968;1257;73851;-76
2023/09/16 09:50:05;;;;;;;3.00;2.20;;;;;;;35.07;24.78;101693.51;105610;1258;64003;-74
2023/09/16 09:52:32;;;;;;;2.00;1.90;;;;;;;35.10;25.04;101693.80;105757;1254;71256;-71
2023/09/16 09:55:00;;;;;;;2.10;2.00;;;;;;;35.12;24.74;101696.45;105687;1257;60559;-71
2023/09/16 09:57:31;;;;;;;2.40;2.30;;;;;;;35.07;24.66;101696.19;105555;1260;60469;-74
2023/09/16 09:59:58;;;;;;;2.60;1.70;;;;;;;34.99;24.16;101693.70;105612;1257;72677;-75
2023/09/16 10:02:26;;;;;;;2.20;2.00;;;;;;;34.91;24.50;101700.79;105563;1260;64194;-74
2023/09/16 10:04:57;;;;;;;2.50;2.30;;;;;;;34.95;23.82;101696.44;105661;1254;71523;-74
2023/09/16 10:07:25;;;;;;;3.40;2.20;;;;;;;35.05;24.09;101696.55;105693;1257;60989;-75
2023/09/16 10:09:53;;;;;;;2.30;2.20;;;;;;;35.13;23.88;101694.71;105622;1254;60455;-76
2023/09/16 10:12:20;;;;;;;2.30;2.10;;;;;;;35.08;23.54;101696.81;105663;1255;73964;-72
2023/09/16 10:14:48;;;;;;;4.20;3.20;;;;;;;34.94;23.41;101694.59;105722;1257;63797;-75
2023/09/16 10:17:15;;;;;;;3.80;3.20;;;;;;;34.88;24.03;101688.70;105625;1255;72685;-74
2023/09/16 10:19:42;;;;;;;3.50;3.20;;;;;;;34.86;24.02;101691.54;105563;1254;60453;-74
2023/09/16 10:22:11;;;;;;;2.60;2.50;;;;;;;34.82;24.01;101697.59;105601;1254;60613;-72
2023/09/16 10:24:41;;;;;;;2.60;2.40;;;;;;;34.81;23.76;101694.70;105726;1257;73791;-72
2023/09/16 10:27:14;;;;;;;4.40;3.20;;;;;;;34.82;23.74;101690.05;105672;1258;63834;-72
2023/09/16 10:32:41;;;;;;;3.10;2.70;;;;;;;34.79;23.83;101686.71;102602;1295;600600;-73
2023/09/16 10:35:09;;;;;;;4.80;2.40;;;;;;;34.75;23.65;101688.43;104808;1271;59411;-74
2023/09/16 10:37:37;;;;;;;3.10;2.50;;;;;;;34.60;23.81;101686.79;104854;1266;59344;-72
2023/09/16 10:40:05;;;;;;;2.20;2.10;;;;;;;34.55;24.19;101683.06;104663;1266;72341;-73
2023/09/16 10:42:35;;;;;;;2.90;2.60;;;;;;;34.50;24.12;101680.63;105210;1258;62269;-72
2023/09/16 10:45:03;;;;;;;3.20;2.90;;;;;;;34.49;24.34;101682.08;105272;1257;72011;-74
2023/09/16 10:47:30;;;;;;;4.10;3.00;;;;;;;34.63;23.83;101682.77;105663;1256;205402;-73
2023/09/16 10:49:58;;;;;;;2.60;2.40;;;;;;;34.68;23.56;101681.74;105735;1257;59254;-74
2023/09/16 10:52:44;;;;;;;3.30;3.00;;;;;;;34.59;23.97;101683.14;105812;1257;72282;-73
2023/09/16 10:55:13;;;;;;;3.10;2.80;;;;;;;34.56;23.97;101679.78;105684;1253;62269;-72
2023/09/16 10:57:54;;;;;;;2.90;2.70;;;;;;;34.53;23.76;101677.84;105714;1257;72641;-73
2023/09/16 11:00:21;;;;;;;5.00;4.50;;;;;;;34.51;24.12;101674.51;105726;1257;60024;-76
2023/09/16 11:02:49;;;;;;;7.70;6.30;;;;;;;34.61;24.46;101678.57;105603;1259;59508;-74
2023/09/16 11:05:19;;;;;;;3.80;3.20;;;;;;;34.61;24.07;101678.10;105693;1257;72459;-74
2023/09/16 11:07:47;;;;;;;2.30;2.20;;;;;;;34.50;23.71;101679.91;105625;1253;62273;-73
2023/09/16 11:10:15;;;;;;;2.40;2.30;;;;;;;34.35;23.89;101681.92;105788;1253;71444;-75
2023/09/16 11:12:43;;;;;;;2.40;2.20;;;;;;;34.17;23.89;101677.01;105755;1254;59708;-72